Time;durP1;ratioP1;P1;durP2;ratioP2;P2;SDS_P1;SDS_P2;PMS_P1;PMS_P2;Temp;Humidity;BMP_temperature;BMP_pressure;BME280_temperature;BME280_humidity;BME280_pressure;Samples;Min_cycle;Max_cycle;Signal;HPM_P1;HPM_P2
2023/05/04 00:01:47;;;;;;;10.98;6.05;;;8.00;99.90;;;;;;5014971;28;20105;-65
2023/05/04 00:04:13;;;;;;;10.60;6.47;;;7.90;99.90;;;;;;5015474;28;20030;-65
2023/05/04 00:06:39;;;;;;;13.95;6.70;;;7.90;99.90;;;;;;5015317;28;20029;-65
2023/05/04 00:09:05;;;;;;;11.95;7.18;;;7.90;99.90;;;;;;5014657;28;20464;-65
2023/05/04 00:11:31;;;;;;;9.30;6.25;;;7.90;99.90;;;;;;5015068;28;20040;-65
2023/05/04 00:13:57;;;;;;;15.52;7.00;;;7.80;99.90;;;;;;5014913;28;20054;-65
2023/05/04 00:16:23;;;;;;;12.52;6.72;;;7.80;99.90;;;;;;5015235;28;20049;-65
2023/05/04 00:18:48;;;;;;;10.13;7.20;;;7.80;99.90;;;;;;5014863;28;20041;-65
2023/05/04 00:21:14;;;;;;;12.23;7.38;;;7.70;99.90;;;;;;5014836;28;20034;-65
2023/05/04 00:23:40;;;;;;;10.00;7.00;;;7.70;99.90;;;;;;5014935;28;20033;-65
2023/05/04 00:26:05;;;;;;;12.48;7.30;;;7.60;99.90;;;;;;5014879;28;20060;-66
2023/05/04 00:28:31;;;;;;;11.45;7.03;;;7.60;99.90;;;;;;5014509;28;20036;-65
2023/05/04 00:30:56;;;;;;;13.50;6.72;;;7.50;99.90;;;;;;5014246;28;20029;-65
2023/05/04 00:33:22;;;;;;;13.82;7.40;;;7.50;99.90;;;;;;5014921;28;20075;-66
2023/05/04 00:35:47;;;;;;;11.88;6.93;;;7.50;1.00;;;;;;5014477;28;20079;-67
2023/05/04 00:38:15;;;;;;;15.13;6.25;;;7.50;1.00;;;;;;5014591;28;20057;-65
2023/05/04 00:40:41;;;;;;;14.35;7.13;;;7.50;1.00;;;;;;5014427;28;20025;-65
2023/05/04 00:43:07;;;;;;;13.88;6.65;;;7.50;1.00;;;;;;5013408;28;20080;-65
2023/05/04 00:45:33;;;;;;;12.45;7.13;;;7.50;1.00;;;;;;5013115;28;20129;-65
2023/05/04 00:47:59;;;;;;;13.15;7.45;;;7.60;1.00;;;;;;5014704;28;20030;-65
2023/05/04 00:50:25;;;;;;;14.00;6.88;;;7.60;1.00;;;;;;5014270;28;20042;-65
2023/05/04 00:52:53;;;;;;;10.27;6.53;;;7.50;1.00;;;;;;5013976;28;20510;-65
2023/05/04 00:55:19;;;;;;;11.20;7.15;;;7.50;1.00;;;;;;5014586;28;20087;-65
2023/05/04 00:57:45;;;;;;;13.02;6.72;;;7.50;1.00;;;;;;5014051;28;20026;-65
2023/05/04 01:00:12;;;;;;;14.30;7.43;;;7.50;1.00;;;;;;5014563;28;20048;-66
2023/05/04 01:02:39;;;;;;;9.70;6.85;;;7.50;1.00;;;;;;5014379;28;20029;-65
2023/05/04 01:05:05;;;;;;;14.75;7.85;;;7.40;1.00;;;;;;5014428;28;20045;-65
2023/05/04 01:07:41;;;;;;;13.48;6.65;;;7.40;1.00;;;;;;5013944;28;20084;-65
2023/05/04 01:10:18;;;;;;;13.95;7.03;;;7.30;1.00;;;;;;5014139;28;20022;-65
2023/05/04 01:12:51;;;;;;;9.18;6.97;;;7.30;1.00;;;;;;5014359;28;20037;-65
2023/05/04 01:15:18;;;;;;;14.52;7.40;;;7.20;1.00;;;;;;5013446;28;20111;-65
2023/05/04 01:17:45;;;;;;;11.80;7.35;;;7.20;1.00;;;;;;5013761;28;20041;-65
2023/05/04 01:20:11;;;;;;;13.70;7.10;;;7.20;1.00;;;;;;5013801;28;20084;-65
2023/05/04 01:22:37;;;;;;;13.77;7.15;;;7.20;1.00;;;;;;5014282;28;20022;-65
2023/05/04 01:25:03;;;;;;;18.08;7.25;;;7.20;1.00;;;;;;5014197;28;20550;-65
2023/05/04 01:27:41;;;;;;;14.45;7.15;;;7.20;1.00;;;;;;5014251;28;20022;-65
2023/05/04 01:30:17;;;;;;;15.18;7.65;;;7.20;1.00;;;;;;5012508;28;20472;-65
2023/05/04 01:32:44;;;;;;;12.38;7.05;;;7.20;1.00;;;;;;5013328;28;20037;-65
2023/05/04 01:35:11;;;;;;;14.68;7.13;;;7.10;1.00;;;;;;5014107;28;20527;-65
2023/05/04 01:37:36;;;;;;;11.27;7.25;;;7.10;1.00;;;;;;5014188;28;20025;-65
2023/05/04 01:40:04;;;;;;;20.55;7.93;;;7.20;1.00;;;;;;5013824;28;20033;-65
2023/05/04 01:42:29;;;;;;;14.40;8.18;;;7.20;1.00;;;;;;5014160;28;20033;-65
2023/05/04 01:44:55;;;;;;;19.25;7.75;;;7.20;1.00;;;;;;5014122;28;20030;-65
2023/05/04 01:47:21;;;;;;;10.75;7.82;;;7.20;1.00;;;;;;5013518;28;20384;-65
2023/05/04 01:49:46;;;;;;;13.02;7.13;;;7.20;1.00;;;;;;5013741;28;20064;-65
2023/05/04 01:52:12;;;;;;;12.63;7.28;;;7.20;1.00;;;;;;5014041;28;20026;-65
2023/05/04 01:54:37;;;;;;;13.60;7.78;;;7.10;1.00;;;;;;5013692;28;20053;-65
2023/05/04 01:57:03;;;;;;;14.48;7.00;;;7.10;1.00;;;;;;5013489;28;20054;-65
2023/05/04 01:59:29;;;;;;;13.35;7.70;;;7.10;1.00;;;;;;5013960;28;20053;-65
2023/05/04 02:01:54;;;;;;;17.25;7.35;;;7.10;1.00;;;;;;5012411;28;20072;-65
2023/05/04 02:04:20;;;;;;;14.85;7.53;;;7.10;1.00;;;;;;5013318;28;20486;-65
2023/05/04 02:06:46;;;;;;;12.95;7.65;;;7.10;1.00;;;;;;5013912;28;20030;-65
2023/05/04 02:09:12;;;;;;;15.15;7.47;;;7.00;1.00;;;;;;5013270;28;20030;-66
2023/05/04 02:11:38;;;;;;;14.10;7.47;;;7.00;1.00;;;;;;5013849;28;20022;-65
2023/05/04 02:14:03;;;;;;;14.90;8.10;;;7.00;1.00;;;;;;5013163;28;20058;-65
2023/05/04 02:16:29;;;;;;;14.05;8.00;;;7.00;1.00;;;;;;5013480;28;20034;-65
2023/05/04 02:18:55;;;;;;;18.02;7.72;;;7.00;1.00;;;;;;5016548;28;20394;-65
2023/05/04 02:21:20;;;;;;;15.73;8.18;;;6.90;1.00;;;;;;5016506;28;20610;-65
2023/05/04 02:23:46;;;;;;;11.60;7.78;;;6.80;1.00;;;;;;5017416;28;20030;-65
2023/05/04 02:26:11;;;;;;;14.07;7.55;;;6.70;1.00;;;;;;5017037;28;20034;-65
2023/05/04 02:28:37;;;;;;;13.73;7.65;;;6.60;1.00;;;;;;5016761;28;20392;-65
2023/05/04 02:31:02;;;;;;;15.32;6.95;;;6.60;1.00;;;;;;5017418;28;20033;-65
2023/05/04 02:33:28;;;;;;;12.00;7.75;;;6.60;1.00;;;;;;5016874;28;20116;-65
2023/05/04 02:35:53;;;;;;;18.90;8.55;;;6.50;1.00;;;;;;5016535;28;20037;-65
2023/05/04 02:38:19;;;;;;;12.20;8.23;;;6.50;1.00;;;;;;5016893;28;20036;-65
2023/05/04 02:40:45;;;;;;;18.73;8.73;;;6.40;1.00;;;;;;5016809;28;20033;-65
2023/05/04 02:43:10;;;;;;;14.40;7.88;;;6.40;4.10;;;;;;5016945;28;20022;-65
2023/05/04 02:45:36;;;;;;;14.13;8.18;;;6.30;6.70;;;;;;5016724;28;20068;-65
2023/05/04 02:48:01;;;;;;;11.10;7.97;;;6.30;11.60;;;;;;5017124;28;20034;-66
2023/05/04 02:50:27;;;;;;;12.13;7.57;;;6.20;15.40;;;;;;5017077;28;20030;-65
2023/05/04 02:52:52;;;;;;;12.65;8.20;;;6.20;19.30;;;;;;5016966;28;20042;-67
2023/05/04 02:55:18;;;;;;;13.73;8.20;;;6.10;20.60;;;;;;5016688;28;20028;-65
2023/05/04 02:57:43;;;;;;;12.65;8.02;;;6.10;20.90;;;;;;5016862;28;20026;-65
2023/05/04 03:00:09;;;;;;;16.17;8.88;;;6.00;21.50;;;;;;5016627;28;20030;-65
2023/05/04 03:02:35;;;;;;;15.65;8.30;;;6.00;23.20;;;;;;5016253;28;20030;-65
2023/05/04 03:05:00;;;;;;;13.38;8.00;;;6.00;24.10;;;;;;5016860;28;20034;-65
2023/05/04 03:07:27;;;;;;;11.25;7.78;;;5.90;24.90;;;;;;5015939;28;20034;-65
2023/05/04 03:09:52;;;;;;;12.48;8.52;;;5.90;28.10;;;;;;5016201;28;20057;-65
2023/05/04 03:12:18;;;;;;;12.98;7.65;;;5.80;32.50;;;;;;5016208;28;20527;-65
2023/05/04 03:14:43;;;;;;;12.38;8.35;;;5.80;38.10;;;;;;5015518;28;20051;-65
2023/05/04 03:17:09;;;;;;;15.13;8.60;;;5.70;43.10;;;;;;5016377;28;20357;-65
2023/05/04 03:19:35;;;;;;;14.43;8.32;;;5.70;47.10;;;;;;5015990;28;20026;-65
2023/05/04 03:22:00;;;;;;;14.57;7.97;;;5.70;48.70;;;;;;5015937;28;20026;-65
2023/05/04 03:24:26;;;;;;;13.30;8.43;;;5.60;50.10;;;;;;5015721;28;20477;-65
2023/05/04 03:26:51;;;;;;;12.25;8.00;;;5.60;51.30;;;;;;5015869;28;20030;-65
2023/05/04 03:29:17;;;;;;;13.38;8.43;;;5.60;54.00;;;;;;5015698;28;20518;-65
2023/05/04 03:31:42;;;;;;;12.07;8.18;;;5.60;55.50;;;;;;5015488;28;20396;-65
2023/05/04 03:34:09;;;;;;;13.85;8.50;;;5.50;57.40;;;;;;5016207;28;20084;-65
2023/05/04 03:36:35;;;;;;;17.85;9.30;;;5.60;59.10;;;;;;5015702;28;20034;-65
2023/05/04 03:39:01;;;;;;;10.90;8.52;;;5.50;60.40;;;;;;5015381;28;20026;-66
2023/05/04 03:41:26;;;;;;;13.80;8.70;;;5.50;67.00;;;;;;5015677;28;20109;-65
2023/05/04 03:43:52;;;;;;;14.02;8.55;;;5.40;68.60;;;;;;5015649;28;20057;-65
2023/05/04 03:46:17;;;;;;;14.95;8.90;;;5.50;75.70;;;;;;5015252;28;20448;-65
2023/05/04 03:48:43;;;;;;;12.23;8.43;;;5.40;81.50;;;;;;5015396;28;20036;-65
2023/05/04 03:51:08;;;;;;;11.82;8.50;;;5.40;82.70;;;;;;5015656;28;20041;-65
2023/05/04 03:53:34;;;;;;;11.30;8.32;;;5.40;85.30;;;;;;5015154;28;20443;-65
2023/05/04 03:56:00;;;;;;;12.57;8.48;;;5.40;85.80;;;;;;5015140;28;20081;-65
2023/05/04 03:58:26;;;;;;;18.80;10.07;;;5.40;87.70;;;;;;5014869;28;20057;-65
2023/05/04 04:00:52;;;;;;;12.13;8.73;;;5.40;90.50;;;;;;5014779;28;20061;-65
2023/05/04 04:03:17;;;;;;;10.98;9.18;;;5.40;91.90;;;;;;5015528;28;20124;-65
2023/05/04 04:05:43;;;;;;;21.20;10.32;;;5.50;94.10;;;;;;5015391;28;20037;-66
2023/05/04 04:08:08;;;;;;;14.00;9.90;;;5.50;95.10;;;;;;5015312;28;20053;-65
2023/05/04 04:10:34;;;;;;;17.17;10.05;;;5.50;97.90;;;;;;5015065;28;20037;-65
2023/05/04 04:13:00;;;;;;;13.68;9.18;;;5.60;98.80;;;;;;5015189;28;20109;-66
2023/05/04 04:15:25;;;;;;;13.02;9.38;;;5.70;98.20;;;;;;5014134;28;20050;-65
2023/05/04 04:17:51;;;;;;;17.13;9.88;;;5.70;97.10;;;;;;5015182;28;20037;-65
2023/05/04 04:20:17;;;;;;;15.15;9.68;;;5.80;96.50;;;;;;5015407;28;20479;-65
2023/05/04 04:22:42;;;;;;;18.52;9.90;;;5.90;92.80;;;;;;5014854;28;20030;-65
2023/05/04 04:25:09;;;;;;;15.70;9.70;;;6.00;91.00;;;;;;5014581;28;20034;-65
2023/05/04 04:27:35;;;;;;;18.08;10.02;;;6.10;90.00;;;;;;5015102;28;20431;-65
2023/05/04 04:30:02;;;;;;;19.70;9.65;;;6.10;89.10;;;;;;5015060;28;20037;-65
2023/05/04 04:32:28;;;;;;;20.13;9.75;;;6.20;88.10;;;;;;5015038;28;20464;-65
2023/05/04 04:34:54;;;;;;;18.63;10.25;;;6.20;91.30;;;;;;5014892;28;20030;-65
2023/05/04 04:37:19;;;;;;;19.70;9.82;;;6.30;92.50;;;;;;5014566;28;20076;-65
2023/05/04 04:39:45;;;;;;;17.30;10.05;;;6.40;91.90;;;;;;5014144;28;20018;-65
2023/05/04 04:42:11;;;;;;;18.42;9.80;;;6.50;90.90;;;;;;5014407;28;20030;-65
2023/05/04 04:44:36;;;;;;;21.75;10.32;;;6.60;86.30;;;;;;5014546;28;20030;-65
2023/05/04 04:47:02;;;;;;;16.15;9.93;;;6.60;71.60;;;;;;5014865;28;20096;-65
2023/05/04 04:49:27;;;;;;;17.88;9.63;;;6.70;64.10;;;;;;5014319;28;20109;-66
2023/05/04 04:51:53;;;;;;;21.02;10.65;;;6.80;60.50;;;;;;5014884;28;20069;-65
2023/05/04 04:54:18;;;;;;;16.83;9.63;;;7.00;56.10;;;;;;5014505;28;20030;-66
2023/05/04 04:56:44;;;;;;;14.57;8.85;;;7.00;39.30;;;;;;5014325;28;20049;-66
2023/05/04 04:59:11;;;;;;;17.38;9.40;;;7.20;37.10;;;;;;5014010;28;20519;-65
2023/05/04 05:01:37;;;;;;;16.85;9.75;;;7.20;27.70;;;;;;5014193;28;20080;-66
2023/05/04 05:04:03;;;;;;;13.32;9.38;;;7.30;19.80;;;;;;5014251;28;20018;-66
2023/05/04 05:06:29;;;;;;;19.60;10.23;;;7.30;13.40;;;;;;5014057;28;20427;-65
2023/05/04 05:08:55;;;;;;;15.10;9.48;;;7.30;9.10;;;;;;5014132;28;20058;-66
2023/05/04 05:11:20;;;;;;;16.17;10.73;;;7.30;12.90;;;;;;5014645;28;20030;-66
2023/05/04 05:13:46;;;;;;;17.30;10.63;;;7.30;19.90;;;;;;5013836;28;20026;-66
2023/05/04 05:16:11;;;;;;;17.10;10.73;;;7.40;18.60;;;;;;5013977;28;20064;-65
2023/05/04 05:18:37;;;;;;;14.23;10.88;;;7.40;16.10;;;;;;5013942;28;20535;-66
2023/05/04 05:21:03;;;;;;;16.00;9.98;;;7.50;9.90;;;;;;5014300;28;20022;-66
2023/05/04 05:23:28;;;;;;;16.27;10.70;;;7.60;1.00;;;;;;5014513;28;20060;-67
2023/05/04 05:25:54;;;;;;;18.75;11.20;;;7.70;1.00;;;;;;5014075;28;20109;-65
2023/05/04 05:28:20;;;;;;;14.27;9.98;;;7.80;1.00;;;;;;5014271;28;20018;-66
2023/05/04 05:30:46;;;;;;;14.75;10.50;;;7.90;1.00;;;;;;5013092;28;20464;-66
2023/05/04 05:33:12;;;;;;;15.32;9.43;;;7.90;1.00;;;;;;5013967;28;20113;-66
2023/05/04 05:35:38;;;;;;;13.50;9.73;;;8.00;1.00;;;;;;5013866;28;20108;-66
2023/05/04 05:38:04;;;;;;;21.15;10.65;;;8.10;1.00;;;;;;5014142;28;20022;-66
2023/05/04 05:40:30;;;;;;;15.95;9.93;;;8.20;1.00;;;;;;5013870;28;20018;-66
2023/05/04 05:42:55;;;;;;;16.58;10.88;;;8.50;1.00;;;;;;5013553;28;20057;-66
2023/05/04 05:45:21;;;;;;;17.05;9.82;;;9.00;1.00;;;;;;5013855;28;20105;-66
2023/05/04 05:47:47;;;;;;;20.63;10.45;;;9.50;1.00;;;;;;5013968;28;20502;-66
2023/05/04 05:50:12;;;;;;;13.50;9.98;;;10.20;99.90;;;;;;5013826;28;20030;-66
2023/05/04 05:52:38;;;;;;;14.68;8.60;;;10.90;92.50;;;;;;5016414;28;20464;-66
2023/05/04 05:55:04;;;;;;;15.15;8.50;;;12.20;32.60;;;;;;5017976;28;20387;-66
2023/05/04 05:57:30;;;;;;;11.18;7.30;;;13.40;28.30;;;;;;5017638;28;20457;-66
2023/05/04 05:59:56;;;;;;;11.82;7.70;;;14.00;99.90;;;;;;5017298;28;20057;-66
2023/05/04 06:02:22;;;;;;;11.20;6.38;;;14.60;1.00;;;;;;5017598;28;20030;-64
2023/05/04 06:04:48;;;;;;;9.95;6.80;;;;;;;;;;5017729;28;20040;-65
2023/05/04 06:07:13;;;;;;;15.45;6.65;;;16.00;99.90;;;;;;5017431;28;20460;-65
2023/05/04 06:09:39;;;;;;;13.75;6.65;;;16.50;2.90;;;;;;5017313;28;20041;-65
2023/05/04 06:12:10;;;;;;;9.18;6.50;;;17.60;1.00;;;;;;5017088;28;20109;-65
2023/05/04 06:14:37;;;;;;;7.65;6.35;;;17.40;99.90;;;;;;5016867;28;20538;-65
2023/05/04 06:17:02;;;;;;;13.27;6.10;;;16.40;99.90;;;;;;5017472;28;20448;-65
2023/05/04 06:19:28;;;;;;;11.95;6.07;;;16.00;99.90;;;;;;5017131;28;20033;-65
2023/05/04 06:21:53;;;;;;;11.43;6.07;;;16.60;99.90;;;;;;5018345;28;20033;-65
2023/05/04 06:24:20;;;;;;;9.80;5.88;;;15.90;99.90;;;;;;5031071;28;20026;-65
2023/05/04 06:26:46;;;;;;;11.13;5.88;;;16.50;99.90;;;;;;5017410;28;20029;-65
2023/05/04 06:29:11;;;;;;;11.75;6.10;;;16.10;99.90;;;;;;5017255;28;20030;-65
2023/05/04 06:31:37;;;;;;;11.18;6.60;;;16.30;99.90;;;;;;5016605;28;20042;-65
2023/05/04 06:34:03;;;;;;;10.00;6.40;;;16.60;99.90;;;;;;5016892;28;20383;-65
2023/05/04 06:36:28;;;;;;;7.90;6.05;;;17.10;99.90;;;;;;5016421;28;20080;-65
2023/05/04 06:38:56;;;;;;;8.25;6.25;;;16.30;99.90;;;;;;5016697;28;20384;-65
2023/05/04 06:41:23;;;;;;;11.25;6.07;;;16.40;99.90;;;;;;5016971;28;20022;-65
2023/05/04 06:43:48;;;;;;;9.40;6.28;;;16.40;99.90;;;;;;5016839;28;20025;-65
2023/05/04 06:46:14;;;;;;;14.95;6.53;;;16.20;99.90;;;;;;5016433;28;20037;-65
2023/05/04 06:48:40;;;;;;;11.27;6.15;;;16.30;99.90;;;;;;5016898;28;20056;-65
2023/05/04 06:51:05;;;;;;;7.43;5.72;;;17.20;99.90;;;;;;5016156;28;20034;-64
2023/05/04 06:53:31;;;;;;;10.82;6.10;;;17.90;99.90;;;;;;5016985;28;20065;-65
2023/05/04 06:55:56;;;;;;;10.27;6.13;;;17.60;99.90;;;;;;5016151;28;20058;-65
2023/05/04 06:58:22;;;;;;;12.43;6.18;;;18.10;99.90;;;;;;5016875;28;20037;-65
2023/05/04 07:00:48;;;;;;;7.50;6.03;;;18.10;99.90;;;;;;5016003;28;20026;-65
2023/05/04 07:03:13;;;;;;;11.00;6.20;;;17.70;99.90;;;;;;5015493;28;20077;-65
2023/05/04 07:05:39;;;;;;;12.85;6.25;;;16.70;99.90;;;;;;5016545;28;20026;-65
2023/05/04 07:08:05;;;;;;;15.88;7.00;;;17.10;99.90;;;;;;5016265;28;20353;-65
2023/05/04 07:10:31;;;;;;;9.90;5.95;;;17.40;99.90;;;;;;5015911;28;20442;-65
2023/05/04 07:12:57;;;;;;;9.00;5.82;;;17.30;99.90;;;;;;5016151;28;20080;-65
2023/05/04 07:15:22;;;;;;;9.20;6.05;;;17.60;99.90;;;;;;5015420;28;20054;-65
2023/05/04 07:17:48;;;;;;;11.95;6.32;;;17.50;99.90;;;;;;5016335;28;20372;-65
2023/05/04 07:20:14;;;;;;;8.45;5.68;;;17.20;99.90;;;;;;5016252;28;20029;-65
2023/05/04 07:22:40;;;;;;;11.13;6.25;;;16.60;99.90;;;;;;5015760;28;20075;-65
2023/05/04 07:25:06;;;;;;;12.30;6.70;;;16.70;99.90;;;;;;5015974;28;20029;-65
2023/05/04 07:27:33;;;;;;;11.30;7.15;;;16.70;99.90;;;;;;5015492;28;20105;-65
2023/05/04 07:30:00;;;;;;;9.18;6.22;;;16.60;99.90;;;;;;5015900;28;20030;-65
2023/05/04 07:32:26;;;;;;;11.10;6.57;;;16.90;99.90;;;;;;5015622;28;20402;-65
2023/05/04 07:34:51;;;;;;;8.43;5.80;;;17.50;99.90;;;;;;5015354;28;20026;-65
2023/05/04 07:37:17;;;;;;;7.93;5.97;;;17.50;99.90;;;;;;5015606;28;20032;-65
2023/05/04 07:39:43;;;;;;;8.55;5.70;;;18.20;99.90;;;;;;5015361;28;20024;-65
2023/05/04 07:42:10;;;;;;;10.90;5.57;;;18.40;99.90;;;;;;5015966;28;20026;-65
2023/05/04 07:44:36;;;;;;;10.70;5.68;;;18.70;99.90;;;;;;5015488;28;20431;-65
2023/05/04 07:47:01;;;;;;;9.05;5.78;;;19.20;99.90;;;;;;5015285;28;20033;-65
2023/05/04 07:49:27;;;;;;;9.02;5.35;;;19.50;99.90;;;;;;5015275;28;20464;-66
2023/05/04 07:51:53;;;;;;;11.60;5.93;;;20.10;99.90;;;;;;5015127;28;20041;-65
2023/05/04 07:54:18;;;;;;;6.82;5.35;;;20.00;99.90;;;;;;5015154;28;20018;-65
2023/05/04 07:56:44;;;;;;;12.77;5.65;;;19.80;99.90;;;;;;5015341;28;20431;-65
2023/05/04 07:59:09;;;;;;;7.50;5.55;;;20.00;99.90;;;;;;5014450;28;20034;-65
2023/05/04 08:01:35;;;;;;;8.27;5.22;;;20.10;99.90;;;;;;5015513;28;20082;-66
2023/05/04 08:04:01;;;;;;;8.80;5.75;;;20.00;79.60;;;;;;5015063;28;20049;-65
2023/05/04 08:06:26;;;;;;;9.13;5.53;;;19.80;26.00;;;;;;5014451;28;20089;-65
2023/05/04 08:08:52;;;;;;;7.80;5.45;;;19.90;50.50;;;;;;5015500;28;20043;-65
2023/05/04 08:11:18;;;;;;;13.80;5.60;;;19.90;24.90;;;;;;5015171;28;20037;-65
2023/05/04 08:13:45;;;;;;;7.63;5.40;;;19.80;86.70;;;;;;5014996;28;20085;-66
2023/05/04 08:16:11;;;;;;;7.30;5.60;;;19.70;98.00;;;;;;5014317;28;20026;-65
2023/05/04 08:18:37;;;;;;;8.82;5.25;;;19.80;64.30;;;;;;5014923;28;20025;-65
2023/05/04 08:21:03;;;;;;;9.48;5.32;;;20.00;48.90;;;;;;5014565;28;20080;-65
2023/05/04 08:23:29;;;;;;;8.60;5.38;;;21.00;16.70;;;;;;5014655;28;20026;-66
2023/05/04 08:25:55;;;;;;;14.32;4.88;;;21.30;14.60;;;;;;5014413;28;20128;-65
2023/05/04 08:28:21;;;;;;;8.20;4.72;;;21.20;1.00;;;;;;5014383;28;20471;-65
2023/05/04 08:30:46;;;;;;;7.00;5.22;;;21.70;13.90;;;;;;5014642;28;20088;-65
2023/05/04 08:33:12;;;;;;;10.07;5.28;;;21.80;1.00;;;;;;5014529;28;20387;-66
2023/05/04 08:35:37;;;;;;;7.80;5.22;;;22.50;1.00;;;;;;5014841;28;20113;-66
2023/05/04 08:38:03;;;;;;;8.43;5.00;;;22.20;1.00;;;;;;5014976;28;20064;-66
2023/05/04 08:40:29;;;;;;;7.20;4.60;;;21.70;1.00;;;;;;5014277;28;20034;-66
2023/05/04 08:42:55;;;;;;;10.10;5.30;;;21.80;1.00;;;;;;5014744;28;20368;-66
2023/05/04 08:45:21;;;;;;;6.45;4.60;;;22.80;1.00;;;;;;5014680;28;20034;-65
2023/05/04 08:47:47;;;;;;;6.45;5.05;;;23.10;1.00;;;;;;5013330;28;20033;-66
2023/05/04 08:50:12;;;;;;;12.20;5.65;;;23.10;1.00;;;;;;5029080;28;20033;-65
2023/05/04 08:52:43;;;;;;;7.28;5.07;;;;;;;;;;5014074;28;20022;-66
2023/05/04 08:55:11;;;;;;;7.55;5.38;;;23.50;25.60;;;;;;5014259;28;20030;-65
2023/05/04 08:57:37;;;;;;;9.38;5.68;;;23.20;99.90;;;;;;5014670;28;20033;-65
2023/05/04 09:00:04;;;;;;;7.25;4.88;;;23.20;52.10;;;;;;5014126;28;20034;-65
2023/05/04 09:02:32;;;;;;;6.65;4.93;;;23.60;27.80;;;;;;5014454;28;20452;-66
2023/05/04 09:05:00;;;;;;;11.10;5.72;;;22.30;4.20;;;;;;5013968;28;20117;-65
2023/05/04 09:07:25;;;;;;;11.18;5.40;;;22.30;1.00;;;;;;5014110;28;20041;-66
2023/05/04 09:09:51;;;;;;;9.05;5.50;;;23.00;10.70;;;;;;5014368;28;20376;-66
2023/05/04 09:12:17;;;;;;;9.13;5.95;;;22.80;1.00;;;;;;5014100;28;20381;-66
2023/05/04 09:14:45;;;;;;;8.25;5.75;;;23.60;1.00;;;;;;5013534;28;20042;-66
2023/05/04 09:17:13;;;;;;;9.13;5.28;;;24.30;1.00;;;;;;5014065;28;20056;-66
2023/05/04 09:19:42;;;;;;;11.85;6.57;;;24.50;1.00;;;;;;5014144;28;20044;-66
2023/05/04 09:22:16;;;;;;;8.00;6.15;;;24.70;1.00;;;;;;5013760;28;20030;-66
2023/05/04 09:24:42;;;;;;;7.28;5.68;;;25.30;1.00;;;;;;5012219;28;20022;-66
2023/05/04 09:27:10;;;;;;;7.70;5.90;;;25.40;1.00;;;;;;5013973;28;20060;-66
2023/05/04 09:29:38;;;;;;;9.13;5.60;;;25.40;1.00;;;;;;5013016;28;20097;-66
2023/05/04 09:32:04;;;;;;;10.20;5.88;;;25.60;19.30;;;;;;5013934;28;20491;-66
2023/05/04 09:34:31;;;;;;;8.07;5.82;;;25.60;1.00;;;;;;5013090;28;20018;-66
2023/05/04 09:37:00;;;;;;;9.15;5.70;;;25.80;1.00;;;;;;5012847;28;20044;-66
2023/05/04 09:39:26;;;;;;;8.40;5.72;;;26.10;13.10;;;;;;5014204;28;20053;-66
2023/05/04 09:41:51;;;;;;;9.13;5.78;;;25.80;1.00;;;;;;5014228;28;20042;-66
2023/05/04 09:44:20;;;;;;;9.02;5.60;;;25.70;1.00;;;;;;5014064;28;20465;-66
2023/05/04 09:47:01;;;;;;;10.43;6.13;;;25.60;1.00;;;;;;5013641;28;20490;-66
2023/05/04 09:49:35;;;;;;;8.05;5.63;;;25.50;1.00;;;;;;5013482;28;20036;-66
2023/05/04 09:52:02;;;;;;;7.60;5.90;;;25.10;1.00;;;;;;5013245;28;20553;-66
2023/05/04 09:54:33;;;;;;;9.20;5.88;;;24.30;1.00;;;;;;5013684;28;20056;-66
2023/05/04 09:57:10;;;;;;;6.70;5.60;;;23.00;1.00;;;;;;5013532;28;20388;-66
2023/05/04 09:59:36;;;;;;;9.45;6.20;;;23.00;1.00;;;;;;5013900;28;20032;-66
2023/05/04 10:02:03;;;;;;;10.25;6.30;;;23.80;1.00;;;;;;5013845;28;20383;-66
2023/05/04 10:04:31;;;;;;;8.20;6.28;;;24.90;1.00;;;;;;5012754;28;20030;-67
2023/05/04 10:06:58;;;;;;;10.02;6.32;;;25.40;49.90;;;;;;5013570;28;20113;-66
2023/05/04 10:09:26;;;;;;;7.80;5.93;;;25.60;1.00;;;;;;5013256;28;20039;-66
2023/05/04 10:11:52;;;;;;;9.15;6.57;;;26.10;1.00;;;;;;5013383;28;20021;-66
2023/05/04 10:14:17;;;;;;;8.32;6.32;;;25.70;1.00;;;;;;5013198;28;20085;-66
2023/05/04 10:17:16;;;;;;;10.20;5.68;;;26.00;11.20;;;;;;5012968;28;20515;-66
2023/05/04 10:20:14;;;;;;;8.50;6.15;;;26.20;32.80;;;;;;5013487;28;20170;-66
2023/05/04 10:23:08;;;;;;;9.50;6.03;;;25.80;1.00;;;;;;5012847;28;20112;-66
2023/05/04 10:25:59;;;;;;;9.70;6.32;;;26.00;11.50;;;;;;5013758;28;20041;-66
2023/05/04 10:28:58;;;;;;;9.10;6.03;;;25.20;43.10;;;;;;5013189;28;20049;-66
2023/05/04 10:31:24;;;;;;;7.60;6.35;;;25.20;5.80;;;;;;5012678;28;20037;-66
2023/05/04 10:33:50;;;;;;;9.85;6.70;;;25.20;1.00;;;;;;5018668;28;20038;-66
2023/05/04 10:36:15;;;;;;;8.02;6.00;;;24.90;6.00;;;;;;5017919;28;20037;-65
2023/05/04 10:38:41;;;;;;;7.60;5.78;;;25.20;3.40;;;;;;5014176;28;20372;-65
2023/05/04 10:41:15;;;;;;;8.63;5.90;;;24.90;1.00;;;;;;5017096;28;20037;-65
2023/05/04 10:43:41;;;;;;;8.38;5.90;;;24.50;1.00;;;;;;5016652;28;20113;-65
2023/05/04 10:46:16;;;;;;;7.38;5.72;;;23.60;1.00;;;;;;5017390;28;20037;-65
2023/05/04 10:48:41;;;;;;;10.18;6.68;;;23.50;1.00;;;;;;5026211;28;20037;-65
2023/05/04 10:51:17;;;;;;;10.98;5.93;;;23.70;1.00;;;;;;5032647;28;20468;-65
2023/05/04 10:53:42;;;;;;;10.93;6.70;;;23.70;1.00;;;;;;5036509;28;20551;-65
2023/05/04 10:56:19;;;;;;;10.55;6.75;;;23.60;1.00;;;;;;5018589;28;20105;-65
2023/05/04 10:58:46;;;;;;;7.50;6.20;;;23.00;1.00;;;;;;5015745;28;20447;-65
2023/05/04 11:01:12;;;;;;;8.60;7.10;;;23.70;1.00;;;;;;5016599;28;20113;-65
2023/05/04 11:03:39;;;;;;;10.70;6.47;;;23.60;1.00;;;;;;5016517;28;20101;-65
2023/05/04 11:06:18;;;;;;;7.35;5.32;;;23.60;1.00;;;;;;5015954;28;20044;-65
2023/05/04 11:08:46;;;;;;;8.40;5.57;;;23.40;1.00;;;;;;5015966;28;20122;-65
2023/05/04 11:11:11;;;;;;;8.48;4.60;;;23.70;1.00;;;;;;5016600;28;20084;-65
2023/05/04 11:13:44;;;;;;;8.88;4.50;;;23.70;22.80;;;;;;5016176;28;20456;-66
2023/05/04 11:16:11;;;;;;;;;;;23.20;45.40;;;;;;5016123;28;20044;-65
2023/05/04 11:18:37;;;;;;;7.20;4.90;;;23.20;10.90;;;;;;5015936;28;20395;-66
2023/05/04 11:21:03;;;;;;;7.72;5.65;;;23.40;99.90;;;;;;5016370;28;20121;-65
2023/05/04 11:23:29;;;;;;;8.38;5.70;;;23.30;88.20;;;;;;5015814;28;20026;-65
2023/05/04 11:25:55;;;;;;;10.60;6.05;;;23.50;70.20;;;;;;5014523;28;20037;-65
2023/05/04 11:28:37;;;;;;;9.00;6.00;;;23.70;81.70;;;;;;5016026;28;20120;-65
2023/05/04 11:31:19;;;;;;;10.35;5.90;;;23.10;55.90;;;;;;5014383;28;20053;-65
2023/05/04 11:33:50;;;;;;;9.82;5.55;;;22.70;40.40;;;;;;5015721;28;20088;-66
2023/05/04 11:36:16;;;;;;;7.50;4.80;;;22.90;29.40;;;;;;5015937;28;20087;-66
2023/05/04 11:38:42;;;;;;;7.13;4.07;;;23.60;50.50;;;;;;5015796;28;20092;-66
2023/05/04 11:41:08;;;;;;;6.07;4.20;;;23.40;65.00;;;;;;5016003;28;20022;-66
2023/05/04 11:43:35;;;;;;;5.45;3.72;;;23.20;54.00;;;;;;5015627;28;20108;-66
2023/05/04 11:46:01;;;;;;;7.72;4.03;;;23.20;89.90;;;;;;5015596;28;20025;-69
2023/05/04 11:48:30;;;;;;;8.38;4.60;;;23.70;89.10;;;;;;5015119;28;20026;-66
2023/05/04 11:50:57;;;;;;;4.20;3.75;;;23.70;82.60;;;;;;5015536;28;20034;-66
2023/05/04 11:53:22;;;;;;;6.80;3.70;;;23.90;99.90;;;;;;5015539;28;20479;-66
2023/05/04 11:55:49;;;;;;;5.00;3.90;;;23.70;99.90;;;;;;5014933;28;20033;-67
2023/05/04 11:58:22;;;;;;;9.80;4.95;;;23.20;99.90;;;;;;5014788;28;20026;-66
2023/05/04 12:00:55;;;;;;;7.18;4.75;;;23.00;99.90;;;;;;5015405;28;20022;-66
2023/05/04 12:03:27;;;;;;;6.88;4.68;;;23.40;99.90;;;;;;5015274;28;20491;-66
2023/05/04 12:05:55;;;;;;;6.97;4.70;;;23.80;99.90;;;;;;5015514;28;20072;-66
2023/05/04 12:08:30;;;;;;;6.93;5.28;;;23.60;99.90;;;;;;5014646;28;20746;-66
2023/05/04 12:14:01;;;;;;;9.73;5.18;;;23.40;99.90;;;;;;5071259;28;20795;-68
2023/05/04 12:16:26;;;;;;;6.80;5.38;;;23.30;35.80;;;;;;5071318;28;20506;-67
2023/05/04 12:19:02;;;;;;;10.88;5.60;;;23.30;53.80;;;;;;5070969;28;20064;-67
2023/05/04 12:21:28;;;;;;;6.78;5.32;;;23.40;26.90;;;;;;5070641;28;20517;-68
2023/05/04 12:23:56;;;;;;;9.90;5.60;;;23.20;19.20;;;;;;5071159;28;20021;-67
2023/05/04 12:26:22;;;;;;;8.70;5.55;;;23.00;6.00;;;;;;5070440;28;20071;-66
2023/05/04 12:28:47;;;;;;;9.93;5.80;;;22.70;6.20;;;;;;5070495;28;20418;-66
2023/05/04 12:31:13;;;;;;;8.25;6.00;;;22.50;11.60;;;;;;5070460;28;20032;-66
2023/05/04 12:33:39;;;;;;;10.85;5.18;;;22.20;1.00;;;;;;5070560;28;20364;-66
2023/05/04 12:36:05;;;;;;;9.45;7.07;;;22.20;1.00;;;;;;5070731;28;20037;-66
2023/05/04 12:38:31;;;;;;;8.05;5.60;;;22.40;1.00;;;;;;5070761;28;20489;-66
2023/05/04 12:40:59;;;;;;;7.40;5.80;;;22.40;1.00;;;;;;5050733;28;20026;-66
2023/05/04 12:43:25;;;;;;;10.20;6.30;;;22.60;1.00;;;;;;5050331;28;20025;-66
2023/05/04 12:45:51;;;;;;;10.20;6.05;;;22.70;1.00;;;;;;5050333;28;20026;-66
2023/05/04 12:48:19;;;;;;;8.65;6.25;;;22.70;1.00;;;;;;5050773;28;20380;-66
2023/05/04 12:50:45;;;;;;;8.82;6.05;;;22.60;1.00;;;;;;5050490;28;20079;-66
2023/05/04 12:53:14;;;;;;;9.10;6.38;;;22.40;1.00;;;;;;5050232;28;20025;-66